sensor_id;sensor_type;location;lat;lon;timestamp;P1;durP1;ratioP1;P2;durP2;ratioP2
295;SDS011;132;48.770;9.200;2022-08-19T00:00:44;21.60;;;14.97;;
295;SDS011;132;48.770;9.200;2022-08-19T00:03:31;19.83;;;14.40;;
295;SDS011;132;48.770;9.200;2022-08-19T00:06:17;19.83;;;14.57;;
295;SDS011;132;48.770;9.200;2022-08-19T00:09:05;20.40;;;14.30;;
295;SDS011;132;48.770;9.200;2022-08-19T00:11:54;18.27;;;13.80;;
295;SDS011;132;48.770;9.200;2022-08-19T00:14:41;20.83;;;14.37;;
295;SDS011;132;48.770;9.200;2022-08-19T00:17:28;20.00;;;14.43;;
295;SDS011;132;48.770;9.200;2022-08-19T00:20:15;20.43;;;15.07;;
295;SDS011;132;48.770;9.200;2022-08-19T00:23:04;20.30;;;14.60;;
295;SDS011;132;48.770;9.200;2022-08-19T00:25:50;17.70;;;13.43;;
295;SDS011;132;48.770;9.200;2022-08-19T00:28:38;18.77;;;13.70;;
295;SDS011;132;48.770;9.200;2022-08-19T00:31:24;21.07;;;14.30;;
295;SDS011;132;48.770;9.200;2022-08-19T00:34:13;23.77;;;15.50;;
295;SDS011;132;48.770;9.200;2022-08-19T00:37:00;18.67;;;13.67;;
295;SDS011;132;48.770;9.200;2022-08-19T00:39:47;19.00;;;13.40;;
295;SDS011;132;48.770;9.200;2022-08-19T00:42:34;19.43;;;13.63;;
295;SDS011;132;48.770;9.200;2022-08-19T00:45:22;19.97;;;14.10;;
295;SDS011;132;48.770;9.200;2022-08-19T00:48:12;24.40;;;15.27;;
295;SDS011;132;48.770;9.200;2022-08-19T00:50:59;21.77;;;14.47;;
295;SDS011;132;48.770;9.200;2022-08-19T00:53:46;27.27;;;15.37;;
295;SDS011;132;48.770;9.200;2022-08-19T00:56:32;21.07;;;14.53;;
295;SDS011;132;48.770;9.200;2022-08-19T00:59:20;19.40;;;14.40;;
295;SDS011;132;48.770;9.200;2022-08-19T01:02:07;19.70;;;14.07;;
295;SDS011;132;48.770;9.200;2022-08-19T01:04:54;24.97;;;16.00;;
295;SDS011;132;48.770;9.200;2022-08-19T01:07:41;21.73;;;13.60;;
295;SDS011;132;48.770;9.200;2022-08-19T01:10:31;22.47;;;15.00;;
295;SDS011;132;48.770;9.200;2022-08-19T01:13:22;20.67;;;14.43;;
295;SDS011;132;48.770;9.200;2022-08-19T01:16:11;21.07;;;14.27;;
295;SDS011;132;48.770;9.200;2022-08-19T01:18:59;21.60;;;14.83;;
295;SDS011;132;48.770;9.200;2022-08-19T01:21:55;22.80;;;15.70;;
295;SDS011;132;48.770;9.200;2022-08-19T01:24:47;20.13;;;14.27;;
295;SDS011;132;48.770;9.200;2022-08-19T01:27:40;21.27;;;14.53;;
295;SDS011;132;48.770;9.200;2022-08-19T01:30:30;21.47;;;13.83;;
295;SDS011;132;48.770;9.200;2022-08-19T01:33:18;22.23;;;15.33;;
295;SDS011;132;48.770;9.200;2022-08-19T01:36:13;21.90;;;15.70;;
295;SDS011;132;48.770;9.200;2022-08-19T01:39:09;22.00;;;14.87;;
295;SDS011;132;48.770;9.200;2022-08-19T01:41:57;20.40;;;15.20;;
295;SDS011;132;48.770;9.200;2022-08-19T01:44:44;22.97;;;15.30;;
295;SDS011;132;48.770;9.200;2022-08-19T01:47:31;21.90;;;15.20;;
295;SDS011;132;48.770;9.200;2022-08-19T01:50:18;20.50;;;14.77;;
295;SDS011;132;48.770;9.200;2022-08-19T01:53:05;24.90;;;16.63;;
295;SDS011;132;48.770;9.200;2022-08-19T01:55:55;26.30;;;16.30;;
295;SDS011;132;48.770;9.200;2022-08-19T01:58:43;22.43;;;15.03;;
295;SDS011;132;48.770;9.200;2022-08-19T02:01:34;25.90;;;16.77;;
295;SDS011;132;48.770;9.200;2022-08-19T02:04:21;24.70;;;16.50;;
295;SDS011;132;48.770;9.200;2022-08-19T02:07:09;22.60;;;15.30;;
295;SDS011;132;48.770;9.200;2022-08-19T02:09:55;27.30;;;16.70;;
295;SDS011;132;48.770;9.200;2022-08-19T02:12:44;23.60;;;15.83;;
295;SDS011;132;48.770;9.200;2022-08-19T02:15:30;24.03;;;15.97;;
295;SDS011;132;48.770;9.200;2022-08-19T02:18:17;27.60;;;15.43;;
295;SDS011;132;48.770;9.200;2022-08-19T02:21:04;22.37;;;16.00;;
295;SDS011;132;48.770;9.200;2022-08-19T02:23:51;25.47;;;17.30;;
295;SDS011;132;48.770;9.200;2022-08-19T02:26:37;23.40;;;16.47;;
295;SDS011;132;48.770;9.200;2022-08-19T02:29:24;26.33;;;18.43;;
295;SDS011;132;48.770;9.200;2022-08-19T02:32:10;26.00;;;17.80;;
295;SDS011;132;48.770;9.200;2022-08-19T02:34:57;22.57;;;15.17;;
295;SDS011;132;48.770;9.200;2022-08-19T02:37:44;28.40;;;17.13;;
295;SDS011;132;48.770;9.200;2022-08-19T02:40:50;27.40;;;16.90;;
295;SDS011;132;48.770;9.200;2022-08-19T02:43:38;30.00;;;18.20;;
295;SDS011;132;48.770;9.200;2022-08-19T02:46:29;26.03;;;17.90;;
295;SDS011;132;48.770;9.200;2022-08-19T02:49:17;27.03;;;17.63;;
295;SDS011;132;48.770;9.200;2022-08-19T02:52:03;25.33;;;17.67;;
295;SDS011;132;48.770;9.200;2022-08-19T02:54:50;26.03;;;17.20;;
295;SDS011;132;48.770;9.200;2022-08-19T02:57:37;24.90;;;17.17;;
295;SDS011;132;48.770;9.200;2022-08-19T03:00:23;28.50;;;19.20;;
295;SDS011;132;48.770;9.200;2022-08-19T03:03:10;30.33;;;19.53;;
295;SDS011;132;48.770;9.200;2022-08-19T03:06:04;33.67;;;20.97;;
295;SDS011;132;48.770;9.200;2022-08-19T03:08:56;29.17;;;19.40;;
295;SDS011;132;48.770;9.200;2022-08-19T03:11:43;32.77;;;20.40;;
295;SDS011;132;48.770;9.200;2022-08-19T03:14:30;29.50;;;19.40;;
295;SDS011;132;48.770;9.200;2022-08-19T03:17:18;31.40;;;19.80;;
295;SDS011;132;48.770;9.200;2022-08-19T03:20:05;31.57;;;20.40;;
295;SDS011;132;48.770;9.200;2022-08-19T03:23:01;32.90;;;19.70;;
295;SDS011;132;48.770;9.200;2022-08-19T03:25:49;31.20;;;21.27;;
295;SDS011;132;48.770;9.200;2022-08-19T03:28:37;34.20;;;21.50;;
295;SDS011;132;48.770;9.200;2022-08-19T03:31:24;31.80;;;20.97;;
295;SDS011;132;48.770;9.200;2022-08-19T03:34:13;39.00;;;21.53;;
295;SDS011;132;48.770;9.200;2022-08-19T03:37:05;39.97;;;23.00;;
295;SDS011;132;48.770;9.200;2022-08-19T03:39:53;38.47;;;22.57;;
295;SDS011;132;48.770;9.200;2022-08-19T03:42:40;33.87;;;20.73;;
295;SDS011;132;48.770;9.200;2022-08-19T03:45:28;36.37;;;23.00;;
295;SDS011;132;48.770;9.200;2022-08-19T03:48:14;32.13;;;20.77;;
295;SDS011;132;48.770;9.200;2022-08-19T03:51:03;33.50;;;20.63;;
295;SDS011;132;48.770;9.200;2022-08-19T03:53:50;35.90;;;23.60;;
295;SDS011;132;48.770;9.200;2022-08-19T03:56:39;29.17;;;20.67;;
295;SDS011;132;48.770;9.200;2022-08-19T03:59:29;33.57;;;22.27;;
295;SDS011;132;48.770;9.200;2022-08-19T04:02:17;35.40;;;21.63;;
295;SDS011;132;48.770;9.200;2022-08-19T04:05:04;32.87;;;21.70;;
295;SDS011;132;48.770;9.200;2022-08-19T04:07:51;32.73;;;21.87;;
295;SDS011;132;48.770;9.200;2022-08-19T04:10:38;31.00;;;20.83;;
295;SDS011;132;48.770;9.200;2022-08-19T04:13:26;37.33;;;22.87;;
295;SDS011;132;48.770;9.200;2022-08-19T04:16:13;32.83;;;22.23;;
295;SDS011;132;48.770;9.200;2022-08-19T04:19:00;35.37;;;23.37;;
295;SDS011;132;48.770;9.200;2022-08-19T04:21:49;32.37;;;21.20;;
295;SDS011;132;48.770;9.200;2022-08-19T04:24:37;38.50;;;22.47;;
295;SDS011;132;48.770;9.200;2022-08-19T04:27:24;41.43;;;22.53;;
295;SDS011;132;48.770;9.200;2022-08-19T04:30:11;34.57;;;21.20;;
295;SDS011;132;48.770;9.200;2022-08-19T04:32:58;42.67;;;24.77;;
295;SDS011;132;48.770;9.200;2022-08-19T04:35:46;36.13;;;23.80;;
295;SDS011;132;48.770;9.200;2022-08-19T04:38:34;38.10;;;24.20;;
295;SDS011;132;48.770;9.200;2022-08-19T04:41:21;37.10;;;24.77;;
295;SDS011;132;48.770;9.200;2022-08-19T04:44:26;36.17;;;23.00;;
295;SDS011;132;48.770;9.200;2022-08-19T04:47:16;35.33;;;20.80;;
295;SDS011;132;48.770;9.200;2022-08-19T04:50:03;36.57;;;24.63;;
295;SDS011;132;48.770;9.200;2022-08-19T04:52:51;34.40;;;23.03;;
295;SDS011;132;48.770;9.200;2022-08-19T04:55:39;40.10;;;25.30;;
295;SDS011;132;48.770;9.200;2022-08-19T04:58:26;38.23;;;22.67;;
295;SDS011;132;48.770;9.200;2022-08-19T05:01:14;37.00;;;23.17;;
295;SDS011;132;48.770;9.200;2022-08-19T05:04:05;38.90;;;23.53;;
295;SDS011;132;48.770;9.200;2022-08-19T05:06:53;32.60;;;23.30;;
295;SDS011;132;48.770;9.200;2022-08-19T05:09:40;37.60;;;24.03;;
295;SDS011;132;48.770;9.200;2022-08-19T05:12:26;35.73;;;24.40;;
295;SDS011;132;48.770;9.200;2022-08-19T05:15:14;36.50;;;23.60;;
295;SDS011;132;48.770;9.200;2022-08-19T05:18:01;32.70;;;21.43;;
295;SDS011;132;48.770;9.200;2022-08-19T05:21:14;34.17;;;23.23;;
295;SDS011;132;48.770;9.200;2022-08-19T05:24:22;38.00;;;23.33;;
295;SDS011;132;48.770;9.200;2022-08-19T05:27:09;36.40;;;22.43;;
295;SDS011;132;48.770;9.200;2022-08-19T05:29:56;30.80;;;20.53;;
295;SDS011;132;48.770;9.200;2022-08-19T05:32:43;33.73;;;22.70;;
295;SDS011;132;48.770;9.200;2022-08-19T05:35:29;33.30;;;22.07;;
295;SDS011;132;48.770;9.200;2022-08-19T05:38:17;33.93;;;22.87;;
295;SDS011;132;48.770;9.200;2022-08-19T05:41:11;37.90;;;23.60;;
295;SDS011;132;48.770;9.200;2022-08-19T05:44:01;37.53;;;23.53;;
295;SDS011;132;48.770;9.200;2022-08-19T05:46:52;34.60;;;23.57;;
295;SDS011;132;48.770;9.200;2022-08-19T05:49:39;35.93;;;23.60;;
295;SDS011;132;48.770;9.200;2022-08-19T05:52:25;40.53;;;24.90;;
295;SDS011;132;48.770;9.200;2022-08-19T05:55:13;33.73;;;22.93;;
295;SDS011;132;48.770;9.200;2022-08-19T05:58:00;33.07;;;22.83;;
295;SDS011;132;48.770;9.200;2022-08-19T06:00:47;40.10;;;24.13;;
295;SDS011;132;48.770;9.200;2022-08-19T06:03:34;40.40;;;23.50;;
295;SDS011;132;48.770;9.200;2022-08-19T06:06:23;37.57;;;23.57;;
295;SDS011;132;48.770;9.200;2022-08-19T06:09:09;33.47;;;23.30;;
295;SDS011;132;48.770;9.200;2022-08-19T06:11:57;33.57;;;22.63;;
295;SDS011;132;48.770;9.200;2022-08-19T06:14:45;38.63;;;24.43;;
295;SDS011;132;48.770;9.200;2022-08-19T06:17:32;33.67;;;22.03;;
295;SDS011;132;48.770;9.200;2022-08-19T06:20:20;37.23;;;23.07;;
295;SDS011;132;48.770;9.200;2022-08-19T06:23:07;32.90;;;21.53;;
295;SDS011;132;48.770;9.200;2022-08-19T06:25:54;31.90;;;21.73;;
295;SDS011;132;48.770;9.200;2022-08-19T06:28:41;35.57;;;22.60;;
295;SDS011;132;48.770;9.200;2022-08-19T06:31:31;31.10;;;22.30;;
295;SDS011;132;48.770;9.200;2022-08-19T06:34:19;34.30;;;22.90;;
295;SDS011;132;48.770;9.200;2022-08-19T06:37:06;35.23;;;24.13;;
295;SDS011;132;48.770;9.200;2022-08-19T06:39:53;34.60;;;22.80;;
295;SDS011;132;48.770;9.200;2022-08-19T06:42:39;37.70;;;23.60;;
295;SDS011;132;48.770;9.200;2022-08-19T06:45:27;35.13;;;23.70;;
295;SDS011;132;48.770;9.200;2022-08-19T06:48:14;40.70;;;25.80;;
295;SDS011;132;48.770;9.200;2022-08-19T06:51:00;37.30;;;24.07;;
295;SDS011;132;48.770;9.200;2022-08-19T06:53:52;40.27;;;24.97;;
295;SDS011;132;48.770;9.200;2022-08-19T06:56:40;35.23;;;24.27;;
295;SDS011;132;48.770;9.200;2022-08-19T06:59:28;38.10;;;24.50;;
295;SDS011;132;48.770;9.200;2022-08-19T07:02:18;38.53;;;24.87;;
295;SDS011;132;48.770;9.200;2022-08-19T07:05:06;35.97;;;23.33;;
295;SDS011;132;48.770;9.200;2022-08-19T07:07:53;37.20;;;25.10;;
295;SDS011;132;48.770;9.200;2022-08-19T07:10:42;35.00;;;24.07;;
295;SDS011;132;48.770;9.200;2022-08-19T07:13:30;36.17;;;23.80;;
295;SDS011;132;48.770;9.200;2022-08-19T07:16:19;42.03;;;24.73;;
295;SDS011;132;48.770;9.200;2022-08-19T07:19:07;35.07;;;22.40;;
295;SDS011;132;48.770;9.200;2022-08-19T07:21:53;35.27;;;23.43;;
295;SDS011;132;48.770;9.200;2022-08-19T07:24:41;36.60;;;24.10;;
295;SDS011;132;48.770;9.200;2022-08-19T07:27:28;34.30;;;23.33;;
295;SDS011;132;48.770;9.200;2022-08-19T07:30:14;35.70;;;22.53;;
295;SDS011;132;48.770;9.200;2022-08-19T07:33:01;34.53;;;22.83;;
295;SDS011;132;48.770;9.200;2022-08-19T07:35:48;36.93;;;22.90;;
295;SDS011;132;48.770;9.200;2022-08-19T07:38:35;35.07;;;23.33;;
295;SDS011;132;48.770;9.200;2022-08-19T07:41:23;33.93;;;22.87;;
295;SDS011;132;48.770;9.200;2022-08-19T07:44:11;30.87;;;22.30;;
295;SDS011;132;48.770;9.200;2022-08-19T07:46:59;32.63;;;22.13;;
295;SDS011;132;48.770;9.200;2022-08-19T07:49:46;35.80;;;22.20;;
295;SDS011;132;48.770;9.200;2022-08-19T07:52:33;32.33;;;21.20;;
295;SDS011;132;48.770;9.200;2022-08-19T07:55:22;30.10;;;20.73;;
295;SDS011;132;48.770;9.200;2022-08-19T07:58:12;34.43;;;22.80;;
295;SDS011;132;48.770;9.200;2022-08-19T08:01:01;36.47;;;22.57;;
295;SDS011;132;48.770;9.200;2022-08-19T08:03:49;32.70;;;21.33;;
295;SDS011;132;48.770;9.200;2022-08-19T08:06:56;36.93;;;23.80;;
295;SDS011;132;48.770;9.200;2022-08-19T08:10:03;32.57;;;22.57;;
295;SDS011;132;48.770;9.200;2022-08-19T08:12:52;32.70;;;21.63;;
295;SDS011;132;48.770;9.200;2022-08-19T08:15:38;41.03;;;22.23;;
295;SDS011;132;48.770;9.200;2022-08-19T08:18:25;36.33;;;24.10;;
295;SDS011;132;48.770;9.200;2022-08-19T08:21:12;35.47;;;24.00;;
295;SDS011;132;48.770;9.200;2022-08-19T08:23:58;35.50;;;22.60;;
295;SDS011;132;48.770;9.200;2022-08-19T08:26:45;37.90;;;24.20;;
295;SDS011;132;48.770;9.200;2022-08-19T08:29:32;36.70;;;24.17;;
295;SDS011;132;48.770;9.200;2022-08-19T08:32:19;33.97;;;22.37;;
295;SDS011;132;48.770;9.200;2022-08-19T08:35:07;34.53;;;23.07;;
295;SDS011;132;48.770;9.200;2022-08-19T08:37:56;38.07;;;23.53;;
295;SDS011;132;48.770;9.200;2022-08-19T08:40:44;43.80;;;24.27;;
295;SDS011;132;48.770;9.200;2022-08-19T08:43:37;35.00;;;22.60;;
295;SDS011;132;48.770;9.200;2022-08-19T08:46:41;34.90;;;22.00;;
295;SDS011;132;48.770;9.200;2022-08-19T08:52:28;35.60;;;23.37;;
295;SDS011;132;48.770;9.200;2022-08-19T08:55:24;37.00;;;23.63;;
295;SDS011;132;48.770;9.200;2022-08-19T08:58:36;38.40;;;24.13;;
295;SDS011;132;48.770;9.200;2022-08-19T09:01:54;37.97;;;24.17;;
295;SDS011;132;48.770;9.200;2022-08-19T09:04:40;38.47;;;23.40;;
295;SDS011;132;48.770;9.200;2022-08-19T09:10:52;34.67;;;22.57;;
295;SDS011;132;48.770;9.200;2022-08-19T09:16:39;30.63;;;20.70;;
295;SDS011;132;48.770;9.200;2022-08-19T09:19:26;37.23;;;20.10;;
295;SDS011;132;48.770;9.200;2022-08-19T09:22:12;34.57;;;21.77;;
295;SDS011;132;48.770;9.200;2022-08-19T09:24:59;32.37;;;21.70;;
295;SDS011;132;48.770;9.200;2022-08-19T09:27:46;29.03;;;20.10;;
295;SDS011;132;48.770;9.200;2022-08-19T09:30:34;31.07;;;19.67;;
295;SDS011;132;48.770;9.200;2022-08-19T09:33:26;30.37;;;20.57;;
295;SDS011;132;48.770;9.200;2022-08-19T09:36:14;32.90;;;21.40;;
295;SDS011;132;48.770;9.200;2022-08-19T09:39:02;28.97;;;21.00;;
295;SDS011;132;48.770;9.200;2022-08-19T09:41:50;30.63;;;19.57;;
295;SDS011;132;48.770;9.200;2022-08-19T09:44:37;26.20;;;17.80;;
295;SDS011;132;48.770;9.200;2022-08-19T09:47:24;31.90;;;20.17;;
295;SDS011;132;48.770;9.200;2022-08-19T09:50:11;32.83;;;19.73;;
295;SDS011;132;48.770;9.200;2022-08-19T09:52:59;30.87;;;19.73;;
295;SDS011;132;48.770;9.200;2022-08-19T09:55:45;29.93;;;19.30;;
295;SDS011;132;48.770;9.200;2022-08-19T09:58:32;30.43;;;19.10;;
295;SDS011;132;48.770;9.200;2022-08-19T10:01:21;24.40;;;17.73;;
295;SDS011;132;48.770;9.200;2022-08-19T10:04:10;23.73;;;16.90;;
295;SDS011;132;48.770;9.200;2022-08-19T10:06:56;28.57;;;18.30;;
295;SDS011;132;48.770;9.200;2022-08-19T10:09:43;29.17;;;18.40;;
295;SDS011;132;48.770;9.200;2022-08-19T10:12:29;23.80;;;16.30;;
295;SDS011;132;48.770;9.200;2022-08-19T10:15:16;22.43;;;16.23;;
295;SDS011;132;48.770;9.200;2022-08-19T10:18:06;22.37;;;16.03;;
295;SDS011;132;48.770;9.200;2022-08-19T10:21:01;24.33;;;17.20;;
295;SDS011;132;48.770;9.200;2022-08-19T10:23:55;23.47;;;17.50;;
295;SDS011;132;48.770;9.200;2022-08-19T10:26:44;28.57;;;17.83;;
295;SDS011;132;48.770;9.200;2022-08-19T10:29:34;24.93;;;15.73;;
295;SDS011;132;48.770;9.200;2022-08-19T10:32:20;26.93;;;17.60;;
295;SDS011;132;48.770;9.200;2022-08-19T10:35:07;28.00;;;16.83;;
295;SDS011;132;48.770;9.200;2022-08-19T10:37:55;28.40;;;18.43;;
295;SDS011;132;48.770;9.200;2022-08-19T10:40:45;28.87;;;18.20;;
295;SDS011;132;48.770;9.200;2022-08-19T10:43:31;25.97;;;18.47;;
295;SDS011;132;48.770;9.200;2022-08-19T10:46:23;24.20;;;17.63;;
295;SDS011;132;48.770;9.200;2022-08-19T10:49:12;24.43;;;16.40;;
295;SDS011;132;48.770;9.200;2022-08-19T10:51:59;27.73;;;17.17;;
295;SDS011;132;48.770;9.200;2022-08-19T10:55:04;20.83;;;14.90;;
295;SDS011;132;48.770;9.200;2022-08-19T10:58:16;20.97;;;15.37;;
295;SDS011;132;48.770;9.200;2022-08-19T11:01:10;21.33;;;14.83;;
295;SDS011;132;48.770;9.200;2022-08-19T11:03:59;22.17;;;16.23;;
295;SDS011;132;48.770;9.200;2022-08-19T11:06:48;22.57;;;13.80;;
295;SDS011;132;48.770;9.200;2022-08-19T11:09:39;17.70;;;13.07;;
295;SDS011;132;48.770;9.200;2022-08-19T11:12:26;18.53;;;13.10;;
295;SDS011;132;48.770;9.200;2022-08-19T11:15:13;24.87;;;13.20;;
295;SDS011;132;48.770;9.200;2022-08-19T11:18:00;24.30;;;13.37;;
295;SDS011;132;48.770;9.200;2022-08-19T11:20:47;20.47;;;12.37;;
295;SDS011;132;48.770;9.200;2022-08-19T11:23:34;16.07;;;12.00;;
295;SDS011;132;48.770;9.200;2022-08-19T11:26:22;19.43;;;11.70;;
295;SDS011;132;48.770;9.200;2022-08-19T11:29:10;17.70;;;12.00;;
295;SDS011;132;48.770;9.200;2022-08-19T11:31:58;19.77;;;12.50;;
295;SDS011;132;48.770;9.200;2022-08-19T11:34:47;21.03;;;12.37;;
295;SDS011;132;48.770;9.200;2022-08-19T11:37:34;12.57;;;10.50;;
295;SDS011;132;48.770;9.200;2022-08-19T11:40:23;16.90;;;11.57;;
295;SDS011;132;48.770;9.200;2022-08-19T11:43:10;16.03;;;10.10;;
295;SDS011;132;48.770;9.200;2022-08-19T11:45:57;19.60;;;11.60;;
295;SDS011;132;48.770;9.200;2022-08-19T11:48:44;17.60;;;11.60;;
295;SDS011;132;48.770;9.200;2022-08-19T11:51:30;15.70;;;10.47;;
295;SDS011;132;48.770;9.200;2022-08-19T11:54:17;16.17;;;10.90;;
295;SDS011;132;48.770;9.200;2022-08-19T11:57:04;14.07;;;10.70;;
295;SDS011;132;48.770;9.200;2022-08-19T11:59:51;14.23;;;10.77;;
295;SDS011;132;48.770;9.200;2022-08-19T12:02:38;16.67;;;10.40;;
295;SDS011;132;48.770;9.200;2022-08-19T12:05:25;14.07;;;10.97;;
295;SDS011;132;48.770;9.200;2022-08-19T12:08:12;17.40;;;10.50;;
295;SDS011;132;48.770;9.200;2022-08-19T12:10:59;13.53;;;11.00;;
295;SDS011;132;48.770;9.200;2022-08-19T12:13:49;16.70;;;11.00;;
295;SDS011;132;48.770;9.200;2022-08-19T12:16:37;12.07;;;9.43;;
295;SDS011;132;48.770;9.200;2022-08-19T12:19:23;15.10;;;11.63;;
295;SDS011;132;48.770;9.200;2022-08-19T12:22:10;13.40;;;11.00;;
295;SDS011;132;48.770;9.200;2022-08-19T12:24:57;20.53;;;12.80;;
295;SDS011;132;48.770;9.200;2022-08-19T12:27:44;17.43;;;12.30;;
295;SDS011;132;48.770;9.200;2022-08-19T12:30:30;17.30;;;12.97;;
295;SDS011;132;48.770;9.200;2022-08-19T12:33:18;16.73;;;12.73;;
295;SDS011;132;48.770;9.200;2022-08-19T12:36:07;17.80;;;12.80;;
295;SDS011;132;48.770;9.200;2022-08-19T12:38:57;17.80;;;12.20;;
295;SDS011;132;48.770;9.200;2022-08-19T12:41:45;16.93;;;12.10;;
295;SDS011;132;48.770;9.200;2022-08-19T12:44:32;17.00;;;11.83;;
295;SDS011;132;48.770;9.200;2022-08-19T12:47:19;17.20;;;12.77;;
295;SDS011;132;48.770;9.200;2022-08-19T12:50:06;16.83;;;13.43;;
295;SDS011;132;48.770;9.200;2022-08-19T12:52:54;16.97;;;13.17;;
295;SDS011;132;48.770;9.200;2022-08-19T12:55:42;17.77;;;13.60;;
295;SDS011;132;48.770;9.200;2022-08-19T12:58:29;18.90;;;13.40;;
295;SDS011;132;48.770;9.200;2022-08-19T13:01:16;26.87;;;16.13;;
295;SDS011;132;48.770;9.200;2022-08-19T13:04:03;19.40;;;13.77;;
295;SDS011;132;48.770;9.200;2022-08-19T13:06:50;18.03;;;13.10;;
295;SDS011;132;48.770;9.200;2022-08-19T13:09:37;19.47;;;14.00;;
295;SDS011;132;48.770;9.200;2022-08-19T13:12:23;25.43;;;15.13;;
295;SDS011;132;48.770;9.200;2022-08-19T13:15:13;21.23;;;14.00;;
295;SDS011;132;48.770;9.200;2022-08-19T13:18:00;20.77;;;14.43;;
295;SDS011;132;48.770;9.200;2022-08-19T13:20:47;26.80;;;17.50;;
295;SDS011;132;48.770;9.200;2022-08-19T13:23:34;23.93;;;15.97;;
295;SDS011;132;48.770;9.200;2022-08-19T13:26:21;26.60;;;17.53;;
295;SDS011;132;48.770;9.200;2022-08-19T13:29:08;26.20;;;18.33;;
295;SDS011;132;48.770;9.200;2022-08-19T13:32:14;28.90;;;20.07;;
295;SDS011;132;48.770;9.200;2022-08-19T13:35:19;30.27;;;21.10;;
295;SDS011;132;48.770;9.200;2022-08-19T13:38:06;36.03;;;21.43;;
295;SDS011;132;48.770;9.200;2022-08-19T13:40:53;36.40;;;24.37;;
295;SDS011;132;48.770;9.200;2022-08-19T13:43:41;32.57;;;22.60;;
295;SDS011;132;48.770;9.200;2022-08-19T13:46:27;36.83;;;23.03;;
295;SDS011;132;48.770;9.200;2022-08-19T13:49:15;37.47;;;25.37;;
295;SDS011;132;48.770;9.200;2022-08-19T13:52:02;38.60;;;25.00;;
295;SDS011;132;48.770;9.200;2022-08-19T13:54:50;39.77;;;24.90;;
295;SDS011;132;48.770;9.200;2022-08-19T13:57:37;37.73;;;24.93;;
295;SDS011;132;48.770;9.200;2022-08-19T14:00:28;43.40;;;27.87;;
295;SDS011;132;48.770;9.200;2022-08-19T14:03:17;45.90;;;28.43;;
295;SDS011;132;48.770;9.200;2022-08-19T14:06:04;45.50;;;28.90;;
295;SDS011;132;48.770;9.200;2022-08-19T14:08:51;48.70;;;30.33;;
295;SDS011;132;48.770;9.200;2022-08-19T14:11:38;49.43;;;30.03;;
295;SDS011;132;48.770;9.200;2022-08-19T14:14:25;50.00;;;28.60;;
295;SDS011;132;48.770;9.200;2022-08-19T14:17:12;41.40;;;28.03;;
295;SDS011;132;48.770;9.200;2022-08-19T14:19:59;44.17;;;28.40;;
295;SDS011;132;48.770;9.200;2022-08-19T14:22:50;39.97;;;26.67;;
295;SDS011;132;48.770;9.200;2022-08-19T14:25:37;47.03;;;31.30;;
295;SDS011;132;48.770;9.200;2022-08-19T14:28:23;45.83;;;29.77;;
295;SDS011;132;48.770;9.200;2022-08-19T14:31:14;45.93;;;29.03;;
295;SDS011;132;48.770;9.200;2022-08-19T14:34:05;43.80;;;27.90;;
295;SDS011;132;48.770;9.200;2022-08-19T14:36:51;39.83;;;26.93;;
295;SDS011;132;48.770;9.200;2022-08-19T14:39:38;42.27;;;27.53;;
295;SDS011;132;48.770;9.200;2022-08-19T14:42:25;41.40;;;25.57;;
295;SDS011;132;48.770;9.200;2022-08-19T14:45:11;41.37;;;27.17;;
295;SDS011;132;48.770;9.200;2022-08-19T14:47:58;35.17;;;24.10;;
295;SDS011;132;48.770;9.200;2022-08-19T14:50:47;30.87;;;22.37;;
295;SDS011;132;48.770;9.200;2022-08-19T14:53:34;34.10;;;23.63;;
295;SDS011;132;48.770;9.200;2022-08-19T14:56:22;39.40;;;24.60;;
295;SDS011;132;48.770;9.200;2022-08-19T14:59:11;34.00;;;22.90;;
295;SDS011;132;48.770;9.200;2022-08-19T15:01:57;32.70;;;21.33;;
295;SDS011;132;48.770;9.200;2022-08-19T15:04:45;29.70;;;21.30;;
295;SDS011;132;48.770;9.200;2022-08-19T15:07:32;28.17;;;19.33;;
295;SDS011;132;48.770;9.200;2022-08-19T15:10:19;26.63;;;19.03;;
295;SDS011;132;48.770;9.200;2022-08-19T15:13:07;27.00;;;19.00;;
295;SDS011;132;48.770;9.200;2022-08-19T15:15:54;24.93;;;19.27;;
295;SDS011;132;48.770;9.200;2022-08-19T15:18:41;25.97;;;19.33;;
295;SDS011;132;48.770;9.200;2022-08-19T15:21:31;29.73;;;19.10;;
295;SDS011;132;48.770;9.200;2022-08-19T15:24:18;27.90;;;19.53;;
295;SDS011;132;48.770;9.200;2022-08-19T15:27:05;25.57;;;19.03;;
295;SDS011;132;48.770;9.200;2022-08-19T15:29:52;26.57;;;19.40;;
295;SDS011;132;48.770;9.200;2022-08-19T15:32:40;26.60;;;18.10;;
295;SDS011;132;48.770;9.200;2022-08-19T15:35:27;24.80;;;18.37;;
295;SDS011;132;48.770;9.200;2022-08-19T15:38:13;26.33;;;18.37;;
295;SDS011;132;48.770;9.200;2022-08-19T15:41:02;24.90;;;19.20;;
295;SDS011;132;48.770;9.200;2022-08-19T15:44:09;26.57;;;19.30;;
295;SDS011;132;48.770;9.200;2022-08-19T15:46:58;26.57;;;19.50;;
295;SDS011;132;48.770;9.200;2022-08-19T15:49:44;27.73;;;19.00;;
295;SDS011;132;48.770;9.200;2022-08-19T15:52:31;25.53;;;19.73;;
295;SDS011;132;48.770;9.200;2022-08-19T15:55:19;27.13;;;18.73;;
295;SDS011;132;48.770;9.200;2022-08-19T15:58:08;24.60;;;19.40;;
295;SDS011;132;48.770;9.200;2022-08-19T16:01:15;24.47;;;18.50;;
295;SDS011;132;48.770;9.200;2022-08-19T16:04:20;23.03;;;16.07;;
295;SDS011;132;48.770;9.200;2022-08-19T16:07:26;20.87;;;15.07;;
295;SDS011;132;48.770;9.200;2022-08-19T16:10:12;18.93;;;15.00;;
295;SDS011;132;48.770;9.200;2022-08-19T16:12:59;19.77;;;14.97;;
295;SDS011;132;48.770;9.200;2022-08-19T16:15:46;25.10;;;16.47;;
295;SDS011;132;48.770;9.200;2022-08-19T16:18:32;20.63;;;17.40;;
295;SDS011;132;48.770;9.200;2022-08-19T16:21:23;23.03;;;18.03;;
295;SDS011;132;48.770;9.200;2022-08-19T16:24:13;23.20;;;17.13;;
295;SDS011;132;48.770;9.200;2022-08-19T16:27:01;21.20;;;16.10;;
295;SDS011;132;48.770;9.200;2022-08-19T16:29:47;24.90;;;17.50;;
295;SDS011;132;48.770;9.200;2022-08-19T16:32:34;21.43;;;16.33;;
295;SDS011;132;48.770;9.200;2022-08-19T16:35:21;22.13;;;16.47;;
295;SDS011;132;48.770;9.200;2022-08-19T16:38:08;23.87;;;18.30;;
295;SDS011;132;48.770;9.200;2022-08-19T16:40:55;28.70;;;18.90;;
295;SDS011;132;48.770;9.200;2022-08-19T16:43:42;26.53;;;20.53;;
295;SDS011;132;48.770;9.200;2022-08-19T16:46:28;29.20;;;20.00;;
295;SDS011;132;48.770;9.200;2022-08-19T16:49:15;28.70;;;19.53;;
295;SDS011;132;48.770;9.200;2022-08-19T16:52:02;28.90;;;19.63;;
295;SDS011;132;48.770;9.200;2022-08-19T16:54:50;29.33;;;20.43;;
295;SDS011;132;48.770;9.200;2022-08-19T16:57:38;24.37;;;18.00;;
295;SDS011;132;48.770;9.200;2022-08-19T17:00:24;27.67;;;19.63;;
295;SDS011;132;48.770;9.200;2022-08-19T17:03:11;32.17;;;20.87;;
295;SDS011;132;48.770;9.200;2022-08-19T17:05:58;28.30;;;21.20;;
295;SDS011;132;48.770;9.200;2022-08-19T17:08:49;29.20;;;22.17;;
295;SDS011;132;48.770;9.200;2022-08-19T17:11:36;31.20;;;20.60;;
295;SDS011;132;48.770;9.200;2022-08-19T17:14:23;30.63;;;22.17;;
295;SDS011;132;48.770;9.200;2022-08-19T17:17:10;34.73;;;22.43;;
295;SDS011;132;48.770;9.200;2022-08-19T17:19:58;28.47;;;21.33;;
295;SDS011;132;48.770;9.200;2022-08-19T17:22:45;24.40;;;17.97;;
295;SDS011;132;48.770;9.200;2022-08-19T17:25:32;29.70;;;20.40;;
295;SDS011;132;48.770;9.200;2022-08-19T17:28:21;34.13;;;19.80;;
295;SDS011;132;48.770;9.200;2022-08-19T17:31:11;28.20;;;20.70;;
295;SDS011;132;48.770;9.200;2022-08-19T17:33:58;30.37;;;20.03;;
295;SDS011;132;48.770;9.200;2022-08-19T17:36:45;29.80;;;20.83;;